This is the latest recevied weather packets stored in our database for station/object 9M4GEK-3. If no packets are shown the sender has not sent any weather packets the latest 10 day(s).
| Time | Temp. | Humidity | Pressure | Rain* | Wind** | Luminosity | Snow |
|---|---|---|---|---|---|---|---|
| 1777353515 | 42.78° C | 31% | 1007 hPa | - | - | - | - |
| 1777353420 | 42.78° C | 31% | 1007 hPa | - | - | - | - |
| 1777352519 | 42.78° C | 32% | 1007.2 hPa | - | - | - | - |
| 1777351659 | 42.22° C | 33% | 1007.4 hPa | - | - | - | - |
| 1777351619 | 42.22° C | 33% | 1007.4 hPa | - | - | - | - |
| 1777350719 | 42.22° C | 33% | 1007.6 hPa | - | - | - | - |
| 1777349819 | 42.22° C | 33% | 1007.7 hPa | - | - | - | - |
| 1777348918 | 42.78° C | 34% | 1007.8 hPa | - | - | - | - |
| 1777347299 | 42.22° C | 36% | 1008.1 hPa | - | - | - | - |
| 1777347118 | 42.22° C | 36% | 1008.1 hPa | - | - | - | - |
| 1777346218 | 41.11° C | 38% | 1008.3 hPa | - | - | - | - |
| 1777345317 | 41.67° C | 39% | 1008.4 hPa | - | - | - | - |
| 1777343672 | 40.56° C | 41% | 1008.7 hPa | - | - | - | - |
| 1777343517 | 40.56° C | 41% | 1008.7 hPa | - | - | - | - |
| 1777342616 | 40.56° C | 42% | 1008.8 hPa | - | - | - | - |
| 1777340816 | 40° C | 44% | 1008.5 hPa | - | - | - | - |
| 1777339916 | 38.89° C | 47% | 1008.4 hPa | - | - | - | - |
| 1777339015 | 36.67° C | 51% | 1008.2 hPa | - | - | - | - |
| 1777338162 | 33.89° C | 55% | 1008 hPa | - | - | - | - |
| 1777337214 | 33.33° C | 56% | 1007.8 hPa | - | - | - | - |
| 1777336065 | 30.56° C | 64% | 1007.3 hPa | - | - | - | - |
| 1777335683 | 28.89° C | 69% | 1007.1 hPa | - | - | - | - |
| 1777335413 | 30.56° C | 64% | 1007.3 hPa | - | - | - | - |
| 1777328054 | 26.11° C | 74% | 1005.8 hPa | - | - | - | - |
| 1777310950 | 27.22° C | 69% | 1007.5 hPa | - | - | - | - |
* Rain since midnight (hover to see other rain measurements)
** Current wind speed in m/s (hover to see current wind gust speed)